Pagrindinis puslapis
METAR-TAF:

METAR-TAF

Oro uostai :

Ndžamena, Čadas

platuma: 12-08N, ilguma: 015-02E, Aukštis: 295 m

Dabartinis oras

Ataskaita buvo paskelbta 57 minutes, ne 03:00 UTC
Vėjas 7 kt iš Šiaurės
Temperatūra 16°C
Drėgmė 20%
Slėgis 1013 hPa
Matomumas: 6000 m

METAR: FTTJ 280300Z 01007KT 6000 NSC 16/M07 Q1013 NOSIG

Laikas: 04:57 (03:57 UTC)

Prognozė

Ataskaita buvo paskelbta 4 valandos ir 57 minutes, ne 23:00 UTC
Prognozė galioja nuo 28 metu 00 UTC su 29 metu 06 UTC
Vėjas 7 kt iš Šiaurės
Matomumas: 6000 m
Laikinai
nuo 28 metu 05 UTC su 28 metu 09 UTC
Matomumas: 4000 m
dulkės

TAF: FTTJ 272300Z 2800/2906 01007KT 6000 NSC TEMPO 2805/2809 4000 DU

Orai ataskaitas ir orų prognozės (METAR, TAF).

turimą stotys yra geltonos ir raudonos taškus žemėlapyje.

Perkelti pele per norėdami pamatyti stoties vardą.

Tada spustelėkite, norėdami matyti oro stebėjimo ir prognozės.

Norėdami pakeisti žemėlapį: spustelėkite ant žalios mygtukų su juodo kryžiaus žemyn,; žalią mygtuką su brūkšneliu, jei norite nutolinti; arba žalių rodyklių gretimoms žemėlapius.


METAR-TAF: